This is the latest recevied weather packets stored in our database for station/object N2XGL-1. If no packets are shown the sender has not sent any weather packets the latest 10 day(s).
| Time | Temp. | Humidity | Pressure | Rain* | Wind** | Luminosity | Snow |
|---|---|---|---|---|---|---|---|
| 1777232523 | 6.11° C | 85% | 1001.6 hPa | 1.02 mm | - | - | - |
| 1777232043 | 6.11° C | 83% | 1001.8 hPa | 0.51 mm | - | - | - |
| 1777231503 | 6.67° C | 79% | 1002 hPa | 0.25 mm | - | - | - |
| 1777231014 | 7.22° C | 78% | 1002.1 hPa | 0 mm | - | - | - |
| 1777230459 | 7.22° C | 74% | 1001.9 hPa | 0 mm | - | - | - |
| 1777229869 | 7.78° C | 70% | 1002 hPa | 0 mm | - | - | - |
| 1777229290 | 7.78° C | 69% | 1002.2 hPa | 0 mm | - | - | - |
| 1777228749 | 8.33° C | 69% | 1002.9 hPa | 0 mm | - | - | - |
| 1777228259 | 8.33° C | 68% | 1002.6 hPa | 0 mm | - | - | - |
| 1777227661 | 8.89° C | 68% | 1002.6 hPa | 0 mm | - | - | - |
| 1777227109 | 8.33° C | 71% | 1002.5 hPa | 0 mm | - | - | - |
| 1777226801 | 7.78° C | 72% | 1002.4 hPa | 0 mm | - | - | - |
| 1777226589 | 7.78° C | 72% | 1002.4 hPa | 0 mm | - | - | - |
| 1777226034 | 7.22° C | 71% | 1002.5 hPa | 0 mm | - | - | - |
| 1777225534 | 6.67° C | 73% | 1002.6 hPa | 0 mm | - | - | - |
| 1777224974 | 6.67° C | 73% | 1003.2 hPa | 0 mm | - | - | - |
| 1777224429 | 6.67° C | 74% | 1003.2 hPa | 0 mm | - | - | - |
| 1777223849 | 6.67° C | 75% | 1003.6 hPa | 0 mm | - | - | - |
| 1777223362 | 6.11° C | 76% | 1003.8 hPa | 0 mm | - | - | - |
| 1777222794 | 6.11° C | 79% | 1003.5 hPa | 0 mm | - | - | - |
| 1777222261 | 5.56° C | 79% | 1003.4 hPa | 0 mm | - | - | - |
| 1777221249 | 5.56° C | 80% | 1004.2 hPa | 0 mm | - | - | - |
| 1777220729 | 5.56° C | 80% | 1004.3 hPa | 0 mm | - | - | - |
* Rain latest hour (hover to see other rain measurements)
** Current wind speed in m/s (hover to see current wind gust speed)